sensor_id;sensor_type;location;lat;lon;timestamp;P1;durP1;ratioP1;P2;durP2;ratioP2
17714;SDS011;8977;50.902;4.314;2023-05-07T00:02:13;7.60;;;3.20;;
17714;SDS011;8977;50.902;4.314;2023-05-07T00:04:46;6.38;;;3.45;;
17714;SDS011;8977;50.902;4.314;2023-05-07T00:07:16;7.75;;;3.88;;
17714;SDS011;8977;50.902;4.314;2023-05-07T00:09:46;8.35;;;3.30;;
17714;SDS011;8977;50.902;4.314;2023-05-07T00:12:16;6.18;;;3.38;;
17714;SDS011;8977;50.902;4.314;2023-05-07T00:14:43;6.10;;;3.35;;
17714;SDS011;8977;50.902;4.314;2023-05-07T00:17:13;5.18;;;3.17;;
17714;SDS011;8977;50.902;4.314;2023-05-07T00:19:40;6.70;;;3.95;;
17714;SDS011;8977;50.902;4.314;2023-05-07T00:22:09;7.70;;;3.58;;
17714;SDS011;8977;50.902;4.314;2023-05-07T00:24:37;5.22;;;3.35;;
17714;SDS011;8977;50.902;4.314;2023-05-07T00:27:04;9.27;;;3.60;;
17714;SDS011;8977;50.902;4.314;2023-05-07T00:29:31;5.55;;;3.35;;
17714;SDS011;8977;50.902;4.314;2023-05-07T00:31:59;8.18;;;3.50;;
17714;SDS011;8977;50.902;4.314;2023-05-07T00:34:26;5.43;;;3.33;;
17714;SDS011;8977;50.902;4.314;2023-05-07T00:36:53;7.72;;;3.50;;
17714;SDS011;8977;50.902;4.314;2023-05-07T00:39:26;6.95;;;3.15;;
17714;SDS011;8977;50.902;4.314;2023-05-07T00:41:54;5.82;;;2.92;;
17714;SDS011;8977;50.902;4.314;2023-05-07T00:44:24;8.95;;;3.80;;
17714;SDS011;8977;50.902;4.314;2023-05-07T00:46:53;4.25;;;2.95;;
17714;SDS011;8977;50.902;4.314;2023-05-07T00:49:29;7.28;;;3.80;;
17714;SDS011;8977;50.902;4.314;2023-05-07T00:52:05;5.43;;;3.25;;
17714;SDS011;8977;50.902;4.314;2023-05-07T00:54:34;8.32;;;3.53;;
17714;SDS011;8977;50.902;4.314;2023-05-07T00:57:03;5.03;;;2.90;;
17714;SDS011;8977;50.902;4.314;2023-05-07T00:59:31;5.47;;;2.83;;
17714;SDS011;8977;50.902;4.314;2023-05-07T01:04:30;5.40;;;2.80;;
17714;SDS011;8977;50.902;4.314;2023-05-07T01:06:56;5.75;;;3.30;;
17714;SDS011;8977;50.902;4.314;2023-05-07T01:09:28;4.85;;;3.00;;
17714;SDS011;8977;50.902;4.314;2023-05-07T01:12:00;6.28;;;2.80;;
17714;SDS011;8977;50.902;4.314;2023-05-07T01:14:29;7.10;;;2.85;;
17714;SDS011;8977;50.902;4.314;2023-05-07T01:17:03;4.13;;;2.58;;
17714;SDS011;8977;50.902;4.314;2023-05-07T01:19:31;3.55;;;2.78;;
17714;SDS011;8977;50.902;4.314;2023-05-07T01:22:07;5.10;;;2.90;;
17714;SDS011;8977;50.902;4.314;2023-05-07T01:24:37;4.95;;;2.58;;
17714;SDS011;8977;50.902;4.314;2023-05-07T01:27:04;6.07;;;2.60;;
17714;SDS011;8977;50.902;4.314;2023-05-07T01:29:37;4.40;;;2.90;;
17714;SDS011;8977;50.902;4.314;2023-05-07T01:32:05;5.88;;;2.65;;
17714;SDS011;8977;50.902;4.314;2023-05-07T01:37:03;8.43;;;3.10;;
17714;SDS011;8977;50.902;4.314;2023-05-07T01:39:31;6.88;;;2.67;;
17714;SDS011;8977;50.902;4.314;2023-05-07T01:42:01;6.82;;;2.83;;
17714;SDS011;8977;50.902;4.314;2023-05-07T01:44:34;5.95;;;3.00;;
17714;SDS011;8977;50.902;4.314;2023-05-07T01:47:01;6.40;;;2.80;;
17714;SDS011;8977;50.902;4.314;2023-05-07T01:49:28;4.32;;;2.65;;
17714;SDS011;8977;50.902;4.314;2023-05-07T01:51:56;5.90;;;3.33;;
17714;SDS011;8977;50.902;4.314;2023-05-07T01:56:57;5.43;;;2.85;;
17714;SDS011;8977;50.902;4.314;2023-05-07T01:59:25;5.35;;;3.05;;
17714;SDS011;8977;50.902;4.314;2023-05-07T02:01:54;5.05;;;2.63;;
17714;SDS011;8977;50.902;4.314;2023-05-07T02:04:23;6.28;;;3.00;;
17714;SDS011;8977;50.902;4.314;2023-05-07T02:06:51;6.03;;;3.25;;
17714;SDS011;8977;50.902;4.314;2023-05-07T02:09:18;4.00;;;2.70;;
17714;SDS011;8977;50.902;4.314;2023-05-07T02:11:45;6.35;;;3.00;;
17714;SDS011;8977;50.902;4.314;2023-05-07T02:14:12;4.97;;;3.00;;
17714;SDS011;8977;50.902;4.314;2023-05-07T02:16:41;6.63;;;3.17;;
17714;SDS011;8977;50.902;4.314;2023-05-07T02:19:08;5.60;;;3.70;;
17714;SDS011;8977;50.902;4.314;2023-05-07T02:21:38;6.70;;;3.47;;
17714;SDS011;8977;50.902;4.314;2023-05-07T02:24:11;6.25;;;3.03;;
17714;SDS011;8977;50.902;4.314;2023-05-07T02:26:39;7.78;;;3.40;;
17714;SDS011;8977;50.902;4.314;2023-05-07T02:29:09;6.53;;;3.83;;
17714;SDS011;8977;50.902;4.314;2023-05-07T02:31:36;5.53;;;3.45;;
17714;SDS011;8977;50.902;4.314;2023-05-07T02:34:04;4.90;;;3.42;;
17714;SDS011;8977;50.902;4.314;2023-05-07T02:36:34;6.32;;;4.05;;
17714;SDS011;8977;50.902;4.314;2023-05-07T02:39:01;6.35;;;3.70;;
17714;SDS011;8977;50.902;4.314;2023-05-07T02:41:29;7.70;;;3.78;;
17714;SDS011;8977;50.902;4.314;2023-05-07T02:43:56;5.75;;;3.63;;
17714;SDS011;8977;50.902;4.314;2023-05-07T02:46:23;5.55;;;4.13;;
17714;SDS011;8977;50.902;4.314;2023-05-07T02:48:50;6.93;;;3.40;;
17714;SDS011;8977;50.902;4.314;2023-05-07T02:51:21;6.68;;;3.95;;
17714;SDS011;8977;50.902;4.314;2023-05-07T02:53:54;5.53;;;3.72;;
17714;SDS011;8977;50.902;4.314;2023-05-07T02:56:30;7.10;;;4.10;;
17714;SDS011;8977;50.902;4.314;2023-05-07T03:01:26;6.03;;;3.90;;
17714;SDS011;8977;50.902;4.314;2023-05-07T03:03:53;3.88;;;3.40;;
17714;SDS011;8977;50.902;4.314;2023-05-07T03:08:52;8.88;;;4.20;;
17714;SDS011;8977;50.902;4.314;2023-05-07T03:11:22;6.03;;;4.35;;
17714;SDS011;8977;50.902;4.314;2023-05-07T03:13:49;7.13;;;4.15;;
17714;SDS011;8977;50.902;4.314;2023-05-07T03:16:19;7.93;;;4.30;;
17714;SDS011;8977;50.902;4.314;2023-05-07T03:18:46;10.73;;;4.65;;
17714;SDS011;8977;50.902;4.314;2023-05-07T03:21:13;5.60;;;4.15;;
17714;SDS011;8977;50.902;4.314;2023-05-07T03:23:41;5.80;;;4.50;;
17714;SDS011;8977;50.902;4.314;2023-05-07T03:26:08;5.60;;;3.92;;
17714;SDS011;8977;50.902;4.314;2023-05-07T03:28:36;5.55;;;4.38;;
17714;SDS011;8977;50.902;4.314;2023-05-07T03:31:04;6.88;;;4.50;;
17714;SDS011;8977;50.902;4.314;2023-05-07T03:33:39;9.10;;;5.03;;
17714;SDS011;8977;50.902;4.314;2023-05-07T03:36:19;5.50;;;4.55;;
17714;SDS011;8977;50.902;4.314;2023-05-07T03:38:48;7.57;;;4.80;;
17714;SDS011;8977;50.902;4.314;2023-05-07T03:41:21;8.25;;;4.28;;
17714;SDS011;8977;50.902;4.314;2023-05-07T03:43:48;6.28;;;4.35;;
17714;SDS011;8977;50.902;4.314;2023-05-07T03:46:15;9.63;;;5.00;;
17714;SDS011;8977;50.902;4.314;2023-05-07T03:48:42;5.78;;;4.03;;
17714;SDS011;8977;50.902;4.314;2023-05-07T03:51:15;6.38;;;4.00;;
17714;SDS011;8977;50.902;4.314;2023-05-07T03:53:43;5.88;;;3.80;;
17714;SDS011;8977;50.902;4.314;2023-05-07T03:56:12;4.93;;;3.65;;
17714;SDS011;8977;50.902;4.314;2023-05-07T03:58:39;7.53;;;4.47;;
17714;SDS011;8977;50.902;4.314;2023-05-07T04:01:09;5.43;;;3.80;;
17714;SDS011;8977;50.902;4.314;2023-05-07T04:03:36;7.13;;;4.35;;
17714;SDS011;8977;50.902;4.314;2023-05-07T04:06:06;7.22;;;4.22;;
17714;SDS011;8977;50.902;4.314;2023-05-07T04:08:33;4.72;;;4.13;;
17714;SDS011;8977;50.902;4.314;2023-05-07T04:11:00;6.22;;;4.07;;
17714;SDS011;8977;50.902;4.314;2023-05-07T04:13:30;5.18;;;3.70;;
17714;SDS011;8977;50.902;4.314;2023-05-07T04:15:57;6.60;;;3.90;;
17714;SDS011;8977;50.902;4.314;2023-05-07T04:18:24;7.47;;;4.53;;
17714;SDS011;8977;50.902;4.314;2023-05-07T04:20:51;7.22;;;4.20;;
17714;SDS011;8977;50.902;4.314;2023-05-07T04:23:31;6.00;;;4.40;;
17714;SDS011;8977;50.902;4.314;2023-05-07T04:26:04;6.25;;;4.30;;
17714;SDS011;8977;50.902;4.314;2023-05-07T04:28:32;8.77;;;4.35;;
17714;SDS011;8977;50.902;4.314;2023-05-07T04:33:42;6.45;;;4.90;;
17714;SDS011;8977;50.902;4.314;2023-05-07T04:36:09;7.38;;;4.20;;
17714;SDS011;8977;50.902;4.314;2023-05-07T04:38:37;6.32;;;4.60;;
17714;SDS011;8977;50.902;4.314;2023-05-07T04:41:06;7.60;;;4.47;;
17714;SDS011;8977;50.902;4.314;2023-05-07T04:43:37;4.70;;;4.05;;
17714;SDS011;8977;50.902;4.314;2023-05-07T04:46:05;7.20;;;4.45;;
17714;SDS011;8977;50.902;4.314;2023-05-07T04:48:32;6.20;;;4.18;;
17714;SDS011;8977;50.902;4.314;2023-05-07T04:50:59;6.88;;;4.97;;
17714;SDS011;8977;50.902;4.314;2023-05-07T04:53:26;6.63;;;4.68;;
17714;SDS011;8977;50.902;4.314;2023-05-07T04:55:54;7.85;;;4.72;;
17714;SDS011;8977;50.902;4.314;2023-05-07T04:58:22;7.22;;;4.68;;
17714;SDS011;8977;50.902;4.314;2023-05-07T05:00:52;7.57;;;4.50;;
17714;SDS011;8977;50.902;4.314;2023-05-07T05:03:19;8.80;;;4.97;;
17714;SDS011;8977;50.902;4.314;2023-05-07T05:05:46;8.70;;;4.28;;
17714;SDS011;8977;50.902;4.314;2023-05-07T05:08:15;6.13;;;4.30;;
17714;SDS011;8977;50.902;4.314;2023-05-07T05:10:42;6.97;;;4.55;;
17714;SDS011;8977;50.902;4.314;2023-05-07T05:13:09;5.32;;;4.78;;
17714;SDS011;8977;50.902;4.314;2023-05-07T05:15:37;7.97;;;4.90;;
17714;SDS011;8977;50.902;4.314;2023-05-07T05:18:06;9.88;;;4.90;;
17714;SDS011;8977;50.902;4.314;2023-05-07T05:20:33;6.95;;;4.88;;
17714;SDS011;8977;50.902;4.314;2023-05-07T05:23:00;6.07;;;4.90;;
17714;SDS011;8977;50.902;4.314;2023-05-07T05:25:27;8.85;;;4.95;;
17714;SDS011;8977;50.902;4.314;2023-05-07T05:27:54;8.20;;;5.00;;
17714;SDS011;8977;50.902;4.314;2023-05-07T05:30:21;5.93;;;4.68;;
17714;SDS011;8977;50.902;4.314;2023-05-07T05:32:48;7.60;;;5.38;;
17714;SDS011;8977;50.902;4.314;2023-05-07T05:35:17;9.52;;;5.07;;
17714;SDS011;8977;50.902;4.314;2023-05-07T05:37:44;7.72;;;5.25;;
17714;SDS011;8977;50.902;4.314;2023-05-07T05:40:11;6.88;;;4.85;;
17714;SDS011;8977;50.902;4.314;2023-05-07T05:42:38;8.38;;;5.25;;
17714;SDS011;8977;50.902;4.314;2023-05-07T05:45:05;7.93;;;5.40;;
17714;SDS011;8977;50.902;4.314;2023-05-07T05:47:33;8.77;;;5.50;;
17714;SDS011;8977;50.902;4.314;2023-05-07T05:50:00;6.13;;;5.47;;
17714;SDS011;8977;50.902;4.314;2023-05-07T05:52:29;6.65;;;5.47;;
17714;SDS011;8977;50.902;4.314;2023-05-07T05:54:56;6.82;;;5.60;;
17714;SDS011;8977;50.902;4.314;2023-05-07T05:57:30;8.75;;;5.78;;
17714;SDS011;8977;50.902;4.314;2023-05-07T05:59:57;7.55;;;5.40;;
17714;SDS011;8977;50.902;4.314;2023-05-07T06:02:24;7.63;;;5.13;;
17714;SDS011;8977;50.902;4.314;2023-05-07T06:04:51;7.47;;;5.25;;
17714;SDS011;8977;50.902;4.314;2023-05-07T06:07:18;5.88;;;5.07;;
17714;SDS011;8977;50.902;4.314;2023-05-07T06:09:47;7.30;;;4.70;;
17714;SDS011;8977;50.902;4.314;2023-05-07T06:12:14;10.65;;;4.93;;
17714;SDS011;8977;50.902;4.314;2023-05-07T06:14:42;10.88;;;4.20;;
17714;SDS011;8977;50.902;4.314;2023-05-07T06:17:09;7.65;;;3.95;;
17714;SDS011;8977;50.902;4.314;2023-05-07T06:19:37;7.47;;;4.28;;
17714;SDS011;8977;50.902;4.314;2023-05-07T06:22:04;9.23;;;4.38;;
17714;SDS011;8977;50.902;4.314;2023-05-07T06:24:32;8.02;;;4.18;;
17714;SDS011;8977;50.902;4.314;2023-05-07T06:29:30;10.18;;;4.93;;
17714;SDS011;8977;50.902;4.314;2023-05-07T06:32:05;8.73;;;4.57;;
17714;SDS011;8977;50.902;4.314;2023-05-07T06:34:33;9.68;;;4.93;;
17714;SDS011;8977;50.902;4.314;2023-05-07T06:37:00;8.50;;;5.10;;
17714;SDS011;8977;50.902;4.314;2023-05-07T06:39:27;6.95;;;4.60;;
17714;SDS011;8977;50.902;4.314;2023-05-07T06:41:54;11.55;;;5.60;;
17714;SDS011;8977;50.902;4.314;2023-05-07T06:44:22;9.70;;;5.47;;
17714;SDS011;8977;50.902;4.314;2023-05-07T06:46:49;9.18;;;5.38;;
17714;SDS011;8977;50.902;4.314;2023-05-07T06:49:16;8.45;;;5.20;;
17714;SDS011;8977;50.902;4.314;2023-05-07T06:51:43;8.77;;;5.65;;
17714;SDS011;8977;50.902;4.314;2023-05-07T06:54:10;10.52;;;5.97;;
17714;SDS011;8977;50.902;4.314;2023-05-07T06:56:37;8.38;;;5.15;;
17714;SDS011;8977;50.902;4.314;2023-05-07T06:59:05;10.68;;;5.72;;
17714;SDS011;8977;50.902;4.314;2023-05-07T07:01:34;8.60;;;5.38;;
17714;SDS011;8977;50.902;4.314;2023-05-07T07:04:01;11.10;;;5.28;;
17714;SDS011;8977;50.902;4.314;2023-05-07T07:06:28;7.05;;;5.03;;
17714;SDS011;8977;50.902;4.314;2023-05-07T07:08:56;7.88;;;5.20;;
17714;SDS011;8977;50.902;4.314;2023-05-07T07:11:23;11.20;;;5.28;;
17714;SDS011;8977;50.902;4.314;2023-05-07T07:13:50;7.35;;;4.57;;
17714;SDS011;8977;50.902;4.314;2023-05-07T07:16:19;10.05;;;5.70;;
17714;SDS011;8977;50.902;4.314;2023-05-07T07:18:47;10.05;;;5.40;;
17714;SDS011;8977;50.902;4.314;2023-05-07T07:21:14;10.13;;;5.65;;
17714;SDS011;8977;50.902;4.314;2023-05-07T07:23:41;7.90;;;5.05;;
17714;SDS011;8977;50.902;4.314;2023-05-07T07:26:08;8.32;;;4.80;;
17714;SDS011;8977;50.902;4.314;2023-05-07T07:28:41;6.93;;;4.93;;
17714;SDS011;8977;50.902;4.314;2023-05-07T07:31:09;7.20;;;4.63;;
17714;SDS011;8977;50.902;4.314;2023-05-07T07:33:37;6.43;;;4.35;;
17714;SDS011;8977;50.902;4.314;2023-05-07T07:36:06;7.25;;;4.68;;
17714;SDS011;8977;50.902;4.314;2023-05-07T07:38:34;7.03;;;4.50;;
17714;SDS011;8977;50.902;4.314;2023-05-07T07:41:01;8.25;;;4.32;;
17714;SDS011;8977;50.902;4.314;2023-05-07T07:43:28;6.50;;;4.15;;
17714;SDS011;8977;50.902;4.314;2023-05-07T07:45:55;6.90;;;4.22;;
17714;SDS011;8977;50.902;4.314;2023-05-07T07:48:22;6.72;;;4.18;;
17714;SDS011;8977;50.902;4.314;2023-05-07T07:50:49;7.32;;;4.03;;
17714;SDS011;8977;50.902;4.314;2023-05-07T07:53:18;8.48;;;4.65;;
17714;SDS011;8977;50.902;4.314;2023-05-07T07:55:46;6.13;;;4.15;;
17714;SDS011;8977;50.902;4.314;2023-05-07T07:58:14;7.43;;;3.40;;
17714;SDS011;8977;50.902;4.314;2023-05-07T08:00:41;8.27;;;3.72;;
17714;SDS011;8977;50.902;4.314;2023-05-07T08:03:09;5.43;;;3.47;;
17714;SDS011;8977;50.902;4.314;2023-05-07T08:05:36;7.20;;;4.00;;
17714;SDS011;8977;50.902;4.314;2023-05-07T08:08:09;8.25;;;3.88;;
17714;SDS011;8977;50.902;4.314;2023-05-07T08:10:37;7.85;;;4.28;;
17714;SDS011;8977;50.902;4.314;2023-05-07T08:13:05;5.32;;;3.70;;
17714;SDS011;8977;50.902;4.314;2023-05-07T08:15:32;6.57;;;3.42;;
17714;SDS011;8977;50.902;4.314;2023-05-07T08:18:00;6.55;;;3.20;;
17714;SDS011;8977;50.902;4.314;2023-05-07T08:20:28;4.80;;;3.28;;
17714;SDS011;8977;50.902;4.314;2023-05-07T08:22:55;6.78;;;3.33;;
17714;SDS011;8977;50.902;4.314;2023-05-07T08:25:22;5.90;;;3.30;;
17714;SDS011;8977;50.902;4.314;2023-05-07T08:27:51;5.70;;;2.83;;
17714;SDS011;8977;50.902;4.314;2023-05-07T08:30:18;4.20;;;2.47;;
17714;SDS011;8977;50.902;4.314;2023-05-07T08:32:45;5.35;;;2.78;;
17714;SDS011;8977;50.902;4.314;2023-05-07T08:35:15;5.85;;;2.70;;
17714;SDS011;8977;50.902;4.314;2023-05-07T08:37:42;3.83;;;2.65;;
17714;SDS011;8977;50.902;4.314;2023-05-07T08:40:09;4.57;;;2.38;;
17714;SDS011;8977;50.902;4.314;2023-05-07T08:42:36;4.90;;;2.70;;
17714;SDS011;8977;50.902;4.314;2023-05-07T08:45:06;5.45;;;2.80;;
17714;SDS011;8977;50.902;4.314;2023-05-07T08:50:10;5.45;;;2.60;;
17714;SDS011;8977;50.902;4.314;2023-05-07T08:52:43;5.35;;;3.00;;
17714;SDS011;8977;50.902;4.314;2023-05-07T08:55:11;3.85;;;2.70;;
17714;SDS011;8977;50.902;4.314;2023-05-07T08:57:40;6.00;;;3.00;;
17714;SDS011;8977;50.902;4.314;2023-05-07T09:02:40;4.57;;;2.33;;
17714;SDS011;8977;50.902;4.314;2023-05-07T09:05:09;5.53;;;2.65;;
17714;SDS011;8977;50.902;4.314;2023-05-07T09:07:36;2.97;;;2.20;;
17714;SDS011;8977;50.902;4.314;2023-05-07T09:10:04;3.08;;;2.20;;
17714;SDS011;8977;50.902;4.314;2023-05-07T09:12:32;5.07;;;2.08;;
17714;SDS011;8977;50.902;4.314;2023-05-07T09:15:00;2.45;;;1.98;;
17714;SDS011;8977;50.902;4.314;2023-05-07T09:17:29;7.18;;;2.33;;
17714;SDS011;8977;50.902;4.314;2023-05-07T09:19:56;4.25;;;2.35;;
17714;SDS011;8977;50.902;4.314;2023-05-07T09:22:28;2.15;;;1.73;;
17714;SDS011;8977;50.902;4.314;2023-05-07T09:24:58;2.85;;;1.80;;
17714;SDS011;8977;50.902;4.314;2023-05-07T09:27:25;3.03;;;2.03;;
17714;SDS011;8977;50.902;4.314;2023-05-07T09:29:53;4.85;;;2.60;;
17714;SDS011;8977;50.902;4.314;2023-05-07T09:32:21;4.38;;;2.80;;
17714;SDS011;8977;50.902;4.314;2023-05-07T09:34:49;5.50;;;2.67;;
17714;SDS011;8977;50.902;4.314;2023-05-07T09:37:16;5.55;;;2.92;;
17714;SDS011;8977;50.902;4.314;2023-05-07T09:39:45;5.88;;;3.00;;
17714;SDS011;8977;50.902;4.314;2023-05-07T09:42:13;4.97;;;2.75;;
17714;SDS011;8977;50.902;4.314;2023-05-07T09:44:41;6.90;;;3.42;;
17714;SDS011;8977;50.902;4.314;2023-05-07T09:47:10;7.60;;;3.47;;
17714;SDS011;8977;50.902;4.314;2023-05-07T09:49:39;4.90;;;3.25;;
17714;SDS011;8977;50.902;4.314;2023-05-07T09:52:08;7.93;;;3.83;;
17714;SDS011;8977;50.902;4.314;2023-05-07T09:54:36;7.38;;;3.83;;
17714;SDS011;8977;50.902;4.314;2023-05-07T09:57:06;6.38;;;3.78;;
17714;SDS011;8977;50.902;4.314;2023-05-07T09:59:36;6.43;;;4.32;;
17714;SDS011;8977;50.902;4.314;2023-05-07T10:02:04;6.75;;;3.80;;
17714;SDS011;8977;50.902;4.314;2023-05-07T10:04:31;5.55;;;3.60;;
17714;SDS011;8977;50.902;4.314;2023-05-07T10:06:58;4.63;;;3.20;;
17714;SDS011;8977;50.902;4.314;2023-05-07T10:09:27;5.85;;;3.30;;
17714;SDS011;8977;50.902;4.314;2023-05-07T10:11:55;3.83;;;2.67;;
17714;SDS011;8977;50.902;4.314;2023-05-07T10:14:23;8.70;;;3.28;;
17714;SDS011;8977;50.902;4.314;2023-05-07T10:16:51;6.57;;;4.10;;
17714;SDS011;8977;50.902;4.314;2023-05-07T10:19:20;8.27;;;3.95;;
17714;SDS011;8977;50.902;4.314;2023-05-07T10:21:51;6.30;;;4.57;;
17714;SDS011;8977;50.902;4.314;2023-05-07T10:24:24;8.25;;;3.90;;
17714;SDS011;8977;50.902;4.314;2023-05-07T10:26:56;7.90;;;4.38;;
17714;SDS011;8977;50.902;4.314;2023-05-07T10:29:29;6.57;;;4.10;;
17714;SDS011;8977;50.902;4.314;2023-05-07T10:32:11;5.05;;;3.72;;
17714;SDS011;8977;50.902;4.314;2023-05-07T10:34:54;4.75;;;3.95;;
17714;SDS011;8977;50.902;4.314;2023-05-07T10:37:22;8.23;;;4.22;;
17714;SDS011;8977;50.902;4.314;2023-05-07T10:39:53;6.70;;;4.30;;
17714;SDS011;8977;50.902;4.314;2023-05-07T10:42:20;7.38;;;4.30;;
17714;SDS011;8977;50.902;4.314;2023-05-07T10:44:47;6.78;;;4.60;;
17714;SDS011;8977;50.902;4.314;2023-05-07T10:47:14;6.43;;;4.63;;
17714;SDS011;8977;50.902;4.314;2023-05-07T10:56:23;7.05;;;5.07;;
17714;SDS011;8977;50.902;4.314;2023-05-07T11:02:06;5.05;;;3.53;;
17714;SDS011;8977;50.902;4.314;2023-05-07T11:04:35;7.50;;;3.97;;
17714;SDS011;8977;50.902;4.314;2023-05-07T11:10:00;6.22;;;3.72;;
17714;SDS011;8977;50.902;4.314;2023-05-07T11:15:33;3.88;;;3.00;;
17714;SDS011;8977;50.902;4.314;2023-05-07T11:18:09;4.13;;;2.90;;
17714;SDS011;8977;50.902;4.314;2023-05-07T11:26:29;5.43;;;3.25;;
17714;SDS011;8977;50.902;4.314;2023-05-07T11:28:59;3.95;;;3.58;;
17714;SDS011;8977;50.902;4.314;2023-05-07T11:31:27;7.25;;;3.38;;
17714;SDS011;8977;50.902;4.314;2023-05-07T11:33:55;5.93;;;3.78;;
17714;SDS011;8977;50.902;4.314;2023-05-07T11:36:23;5.20;;;3.72;;
17714;SDS011;8977;50.902;4.314;2023-05-07T11:38:51;4.88;;;3.40;;
17714;SDS011;8977;50.902;4.314;2023-05-07T11:41:18;7.40;;;4.22;;
17714;SDS011;8977;50.902;4.314;2023-05-07T11:43:55;6.15;;;3.92;;
17714;SDS011;8977;50.902;4.314;2023-05-07T11:46:24;6.68;;;3.90;;
17714;SDS011;8977;50.902;4.314;2023-05-07T11:48:52;4.68;;;3.67;;
17714;SDS011;8977;50.902;4.314;2023-05-07T11:51:20;5.57;;;4.30;;
17714;SDS011;8977;50.902;4.314;2023-05-07T11:53:48;5.63;;;4.22;;
17714;SDS011;8977;50.902;4.314;2023-05-07T11:56:16;5.45;;;3.97;;
17714;SDS011;8977;50.902;4.314;2023-05-07T11:58:44;4.70;;;3.83;;
17714;SDS011;8977;50.902;4.314;2023-05-07T12:01:12;3.83;;;3.42;;
17714;SDS011;8977;50.902;4.314;2023-05-07T12:03:41;5.10;;;3.80;;
17714;SDS011;8977;50.902;4.314;2023-05-07T12:06:10;4.78;;;3.08;;
17714;SDS011;8977;50.902;4.314;2023-05-07T12:08:38;5.82;;;3.10;;
17714;SDS011;8977;50.902;4.314;2023-05-07T12:11:09;3.92;;;2.40;;
17714;SDS011;8977;50.902;4.314;2023-05-07T12:13:39;5.47;;;2.70;;
17714;SDS011;8977;50.902;4.314;2023-05-07T12:16:07;4.28;;;3.05;;
17714;SDS011;8977;50.902;4.314;2023-05-07T12:18:34;4.65;;;2.92;;
17714;SDS011;8977;50.902;4.314;2023-05-07T12:21:05;3.58;;;3.20;;
17714;SDS011;8977;50.902;4.314;2023-05-07T12:23:33;6.10;;;3.38;;
17714;SDS011;8977;50.902;4.314;2023-05-07T12:26:01;4.60;;;3.60;;
17714;SDS011;8977;50.902;4.314;2023-05-07T12:28:28;6.10;;;3.30;;
17714;SDS011;8977;50.902;4.314;2023-05-07T12:30:55;5.03;;;3.30;;
17714;SDS011;8977;50.902;4.314;2023-05-07T12:33:23;4.22;;;3.20;;
17714;SDS011;8977;50.902;4.314;2023-05-07T12:35:54;3.25;;;2.95;;
17714;SDS011;8977;50.902;4.314;2023-05-07T12:38:23;3.20;;;2.90;;
17714;SDS011;8977;50.902;4.314;2023-05-07T12:40:50;4.40;;;3.10;;
17714;SDS011;8977;50.902;4.314;2023-05-07T12:43:20;4.03;;;2.90;;
17714;SDS011;8977;50.902;4.314;2023-05-07T12:45:49;3.50;;;3.20;;
17714;SDS011;8977;50.902;4.314;2023-05-07T12:48:16;4.38;;;3.58;;
17714;SDS011;8977;50.902;4.314;2023-05-07T12:50:45;4.53;;;3.55;;
17714;SDS011;8977;50.902;4.314;2023-05-07T12:53:15;3.35;;;3.10;;
17714;SDS011;8977;50.902;4.314;2023-05-07T12:55:44;4.40;;;3.88;;
17714;SDS011;8977;50.902;4.314;2023-05-07T12:58:16;3.78;;;3.42;;
17714;SDS011;8977;50.902;4.314;2023-05-07T13:00:44;5.03;;;3.97;;
17714;SDS011;8977;50.902;4.314;2023-05-07T13:03:16;4.53;;;3.78;;
17714;SDS011;8977;50.902;4.314;2023-05-07T13:05:47;4.20;;;3.80;;
17714;SDS011;8977;50.902;4.314;2023-05-07T13:08:23;4.47;;;4.07;;
17714;SDS011;8977;50.902;4.314;2023-05-07T13:10:55;4.70;;;4.30;;
17714;SDS011;8977;50.902;4.314;2023-05-07T13:13:23;5.47;;;4.97;;
17714;SDS011;8977;50.902;4.314;2023-05-07T13:15:50;6.47;;;5.88;;
17714;SDS011;8977;50.902;4.314;2023-05-07T13:18:17;7.38;;;5.45;;
17714;SDS011;8977;50.902;4.314;2023-05-07T13:20:44;6.07;;;5.25;;
17714;SDS011;8977;50.902;4.314;2023-05-07T13:23:11;5.63;;;5.13;;
17714;SDS011;8977;50.902;4.314;2023-05-07T13:25:37;6.82;;;6.20;;
17714;SDS011;8977;50.902;4.314;2023-05-07T13:28:06;5.75;;;5.15;;
17714;SDS011;8977;50.902;4.314;2023-05-07T13:30:33;6.03;;;5.53;;
17714;SDS011;8977;50.902;4.314;2023-05-07T13:33:00;7.78;;;5.53;;
17714;SDS011;8977;50.902;4.314;2023-05-07T13:35:27;5.78;;;5.28;;
17714;SDS011;8977;50.902;4.314;2023-05-07T13:37:54;6.57;;;6.07;;
17714;SDS011;8977;50.902;4.314;2023-05-07T13:40:21;6.55;;;5.95;;
17714;SDS011;8977;50.902;4.314;2023-05-07T13:42:49;6.80;;;6.10;;
17714;SDS011;8977;50.902;4.314;2023-05-07T13:45:17;7.07;;;6.43;;
17714;SDS011;8977;50.902;4.314;2023-05-07T13:47:44;8.10;;;7.40;;
17714;SDS011;8977;50.902;4.314;2023-05-07T13:50:12;7.90;;;7.20;;
17714;SDS011;8977;50.902;4.314;2023-05-07T13:52:40;9.27;;;8.27;;
17714;SDS011;8977;50.902;4.314;2023-05-07T13:55:08;8.98;;;8.15;;
17714;SDS011;8977;50.902;4.314;2023-05-07T13:57:36;9.82;;;8.00;;
17714;SDS011;8977;50.902;4.314;2023-05-07T14:00:03;10.15;;;9.15;;
17714;SDS011;8977;50.902;4.314;2023-05-07T14:02:32;9.27;;;8.38;;
17714;SDS011;8977;50.902;4.314;2023-05-07T14:04:59;8.70;;;8.00;;
17714;SDS011;8977;50.902;4.314;2023-05-07T14:07:26;9.27;;;8.45;;
17714;SDS011;8977;50.902;4.314;2023-05-07T14:09:53;8.70;;;7.90;;
17714;SDS011;8977;50.902;4.314;2023-05-07T14:12:20;8.25;;;7.55;;
17714;SDS011;8977;50.902;4.314;2023-05-07T14:14:47;8.80;;;8.00;;
17714;SDS011;8977;50.902;4.314;2023-05-07T14:17:15;8.85;;;8.05;;
17714;SDS011;8977;50.902;4.314;2023-05-07T14:19:43;8.93;;;8.13;;
17714;SDS011;8977;50.902;4.314;2023-05-07T14:22:10;8.80;;;8.00;;
17714;SDS011;8977;50.902;4.314;2023-05-07T14:24:39;9.60;;;8.80;;
17714;SDS011;8977;50.902;4.314;2023-05-07T14:27:06;9.60;;;8.70;;
17714;SDS011;8977;50.902;4.314;2023-05-07T14:29:33;10.00;;;9.07;;
17714;SDS011;8977;50.902;4.314;2023-05-07T14:32:01;9.77;;;8.80;;
17714;SDS011;8977;50.902;4.314;2023-05-07T14:34:28;9.55;;;8.55;;
17714;SDS011;8977;50.902;4.314;2023-05-07T14:36:56;9.18;;;8.27;;
17714;SDS011;8977;50.902;4.314;2023-05-07T14:39:24;10.73;;;9.38;;
17714;SDS011;8977;50.902;4.314;2023-05-07T14:41:51;10.15;;;9.15;;
17714;SDS011;8977;50.902;4.314;2023-05-07T14:44:19;9.40;;;8.50;;
17714;SDS011;8977;50.902;4.314;2023-05-07T14:46:46;9.85;;;8.95;;
17714;SDS011;8977;50.902;4.314;2023-05-07T14:49:14;9.75;;;8.75;;
17714;SDS011;8977;50.902;4.314;2023-05-07T14:51:42;10.95;;;9.95;;
17714;SDS011;8977;50.902;4.314;2023-05-07T14:54:11;10.02;;;9.02;;
17714;SDS011;8977;50.902;4.314;2023-05-07T14:56:38;10.35;;;9.45;;
17714;SDS011;8977;50.902;4.314;2023-05-07T14:59:06;9.80;;;8.90;;
17714;SDS011;8977;50.902;4.314;2023-05-07T15:01:33;9.35;;;8.45;;
17714;SDS011;8977;50.902;4.314;2023-05-07T15:04:01;10.45;;;9.15;;
17714;SDS011;8977;50.902;4.314;2023-05-07T15:06:29;12.20;;;10.02;;
17714;SDS011;8977;50.902;4.314;2023-05-07T15:08:56;9.57;;;8.63;;
17714;SDS011;8977;50.902;4.314;2023-05-07T15:11:25;9.73;;;8.82;;
17714;SDS011;8977;50.902;4.314;2023-05-07T15:13:52;9.13;;;8.23;;
17714;SDS011;8977;50.902;4.314;2023-05-07T15:16:19;10.38;;;9.38;;
17714;SDS011;8977;50.902;4.314;2023-05-07T15:18:45;10.80;;;9.75;;
17714;SDS011;8977;50.902;4.314;2023-05-07T15:21:12;9.52;;;8.63;;
17714;SDS011;8977;50.902;4.314;2023-05-07T15:23:39;9.65;;;8.65;;
17714;SDS011;8977;50.902;4.314;2023-05-07T15:26:08;8.15;;;7.45;;
17714;SDS011;8977;50.902;4.314;2023-05-07T15:28:37;7.88;;;7.07;;
17714;SDS011;8977;50.902;4.314;2023-05-07T15:31:04;9.45;;;8.55;;
17714;SDS011;8977;50.902;4.314;2023-05-07T15:33:32;9.15;;;8.30;;
17714;SDS011;8977;50.902;4.314;2023-05-07T15:35:59;11.35;;;10.25;;
17714;SDS011;8977;50.902;4.314;2023-05-07T15:38:26;10.48;;;9.27;;
17714;SDS011;8977;50.902;4.314;2023-05-07T15:40:53;10.25;;;9.05;;
17714;SDS011;8977;50.902;4.314;2023-05-07T15:43:20;11.13;;;10.02;;
17714;SDS011;8977;50.902;4.314;2023-05-07T15:45:49;11.35;;;10.18;;
17714;SDS011;8977;50.902;4.314;2023-05-07T15:48:16;10.07;;;8.98;;
17714;SDS011;8977;50.902;4.314;2023-05-07T15:50:43;10.00;;;9.00;;
17714;SDS011;8977;50.902;4.314;2023-05-07T15:53:09;8.32;;;7.43;;